SUAA

Details ICAO SUAA
Name ANGEL S ADAMI
Region Uruguay
Timezone America/Montevideo (UTC-3.0)
Plans Departing 18
Arriving 14
Stats Elevation 174 ft / 53 m (AMSL)
Location -34.789096° -56.264702°
Runways 1
Magnetic Variation 10.724° W
Sunrise 2018-05-22 10:38:35 UTC / 2018-05-22 07:38:35 Local
Sunset 2018-05-22 20:47:44 UTC / 2018-05-22 17:47:44 Local
Advertisement - Login to hide

Runways

ID Width Length Bearing (true) Bearing (mag) Surface Threshold Offset Overrun Length
18 75 ft / 23 m 4,194 ft / 1,278 m 176.77° 187.49° Concrete 0 ft / 0 m 0 ft / 0 m
36 75 ft / 23 m 4,194 ft / 1,278 m 356.77° 7.49° Concrete 0 ft / 0 m 0 ft / 0 m

Map

Weather


0- 5 10 15 20 25 30 35+ Temperature / ° C

Clouds and Precipitation
Forecast for 2018-05-22 12:00 UTC. Updated 2 hours ago

Ground ~20,000 ft ~40,000 ft Winds

METAR

SUAA 221100Z 25003KT 9999 FEW020 BKN200 09/08 Q1020

TAF

TAF SUAA 220525Z 2206/2306 28005KT CAVOK TX16/2218Z TN07/2210Z TEMPO 2206/2211 4000 BR BECMG 2212/2216 23010KT 9999 SCT017

Frequencies

Tower 118.40 MHz ADAMI TWR
Tower 122.10 MHz ADAMI TWR
Warning: Do not use this data for real-world aviation or navigation. No guarantee of current accuracy is given.